createdAt,value
2022-12-31T00:00:36.275Z,84.16
2022-12-31T00:01:36.190Z,83.76
2022-12-31T00:02:36.144Z,84.27
2022-12-31T00:03:36.177Z,83.51
2022-12-31T00:04:36.128Z,83.01
2022-12-31T00:05:36.216Z,82.67
2022-12-31T00:06:36.100Z,81.92
2022-12-31T00:08:36.081Z,81.31
2022-12-31T00:09:36.191Z,81.41
2022-12-31T00:10:36.060Z,80.94
2022-12-31T00:11:36.050Z,82.3
2022-12-31T00:12:36.034Z,82.6
2022-12-31T00:13:36.022Z,82.06
2022-12-31T00:14:36.067Z,82.9
2022-12-31T00:15:36.003Z,82.56
2022-12-31T00:16:35.995Z,81.96
2022-12-31T00:17:35.983Z,82.26
2022-12-31T00:18:35.982Z,82.16
2022-12-31T00:19:36.003Z,82.5
2022-12-31T00:20:35.950Z,83.55
2022-12-31T00:21:36.072Z,83.96
2022-12-31T00:22:35.947Z,83.45
2022-12-31T00:23:35.928Z,83.96
2022-12-31T00:24:35.913Z,84.27
2022-12-31T00:25:35.899Z,84.56
2022-12-31T00:26:35.884Z,84.97
2022-12-31T00:27:35.883Z,85.68
2022-12-31T00:28:35.869Z,85.93
2022-12-31T00:29:35.851Z,86.22
2022-12-31T00:30:35.844Z,86.63
2022-12-31T00:31:35.847Z,87.08
2022-12-31T00:32:35.821Z,87.38
2022-12-31T00:33:35.815Z,87.04
2022-12-31T00:34:35.807Z,86.73
2022-12-31T00:35:35.863Z,86.94
2022-12-31T00:36:35.782Z,87.28
2022-12-31T00:37:35.774Z,87.54
2022-12-31T00:38:35.780Z,86.9
2022-12-31T00:39:35.747Z,86.08
2022-12-31T00:40:35.743Z,85.78
2022-12-31T00:41:35.734Z,86.33
2022-12-31T00:42:35.718Z,86.83
2022-12-31T00:43:35.710Z,87.34
2022-12-31T00:44:35.697Z,86.83
2022-12-31T00:45:35.717Z,87.48
2022-12-31T00:47:35.672Z,87.74
2022-12-31T00:48:35.862Z,87.04
2022-12-31T00:49:35.645Z,86.94
2022-12-31T00:50:35.633Z,87.04
2022-12-31T00:51:35.630Z,87.34
2022-12-31T00:52:35.655Z,86.94
2022-12-31T00:53:35.610Z,87.54
2022-12-31T00:54:35.590Z,86.22
2022-12-31T00:55:35.587Z,86.79
2022-12-31T00:56:35.667Z,85.68
2022-12-31T00:57:35.598Z,86.33
2022-12-31T00:58:35.547Z,86.49
2022-12-31T00:59:35.535Z,85.68
2022-12-31T01:00:35.534Z,85.07
2022-12-31T01:01:35.523Z,85.68
2022-12-31T01:02:35.503Z,86.59
2022-12-31T01:03:35.496Z,85.84
2022-12-31T01:04:35.504Z,84.83
2022-12-31T01:05:35.472Z,85.17
2022-12-31T01:06:35.464Z,85.48
2022-12-31T01:07:35.448Z,85.58
2022-12-31T01:08:35.448Z,85.68
2022-12-31T01:09:35.430Z,85.68
2022-12-31T01:10:35.423Z,85.44
2022-12-31T01:11:35.428Z,85.48
2022-12-31T01:12:35.400Z,85.07
2022-12-31T01:13:35.388Z,85.17
2022-12-31T01:14:35.374Z,85.27
2022-12-31T01:15:35.369Z,85.38
2022-12-31T01:16:35.359Z,85.88
2022-12-31T01:17:35.487Z,85.38
2022-12-31T01:18:35.334Z,85.84
2022-12-31T01:19:35.344Z,85.27
2022-12-31T01:20:35.317Z,85.78
2022-12-31T01:21:35.304Z,85.74
2022-12-31T01:22:35.305Z,85.24
2022-12-31T01:23:35.307Z,84.83
2022-12-31T01:24:35.272Z,85.03
2022-12-31T01:25:35.262Z,84.28
2022-12-31T01:26:35.256Z,83.78
2022-12-31T01:27:35.245Z,83.78
2022-12-31T01:28:35.251Z,83.61
2022-12-31T01:29:35.219Z,84.73
2022-12-31T01:30:35.260Z,84.42
2022-12-31T01:31:35.280Z,84.93
2022-12-31T01:32:35.187Z,84.47
2022-12-31T01:33:35.218Z,85.13
2022-12-31T01:34:35.162Z,84.19
2022-12-31T01:35:35.171Z,83.82
2022-12-31T01:36:35.365Z,85.07
2022-12-31T01:37:35.137Z,84.33
2022-12-31T01:38:35.122Z,84.12
2022-12-31T01:39:35.380Z,83.82
2022-12-31T01:40:35.098Z,84.47
2022-12-31T01:41:35.093Z,84.42
2022-12-31T01:42:35.083Z,84.69
2022-12-31T01:43:35.071Z,83.58
2022-12-31T01:44:35.863Z,83.61
2022-12-31T01:45:35.048Z,83.88
2022-12-31T01:46:35.042Z,83.68
2022-12-31T01:47:35.032Z,83.07
2022-12-31T01:48:35.013Z,83.27
2022-12-31T01:49:35.006Z,83.68
2022-12-31T01:50:35.112Z,83.07
2022-12-31T01:51:34.981Z,82.46
2022-12-31T01:52:34.977Z,82.87
2022-12-31T01:53:34.958Z,81.68
2022-12-31T01:54:34.955Z,82.32
2022-12-31T01:55:34.940Z,82.28
2022-12-31T01:56:34.947Z,81.51
2022-12-31T01:57:34.935Z,82.22
2022-12-31T01:58:34.908Z,82.22
2022-12-31T01:59:34.904Z,81.27
2022-12-31T02:00:34.884Z,80.77
2022-12-31T02:01:34.928Z,81.17
2022-12-31T02:02:34.869Z,81.11
2022-12-31T02:03:34.855Z,81.71
2022-12-31T02:04:34.895Z,82.36
2022-12-31T02:05:34.831Z,82.36
2022-12-31T02:06:34.826Z,83.47
2022-12-31T02:07:34.811Z,83.13
2022-12-31T02:08:34.851Z,82.73
2022-12-31T02:09:34.798Z,82.42
2022-12-31T02:10:34.800Z,83.03
2022-12-31T02:11:34.842Z,82.76
2022-12-31T02:12:34.859Z,84.22
2022-12-31T02:13:34.758Z,84.53
2022-12-31T02:14:34.738Z,84.12
2022-12-31T02:15:34.776Z,84.22
2022-12-31T02:16:34.723Z,84.42
2022-12-31T02:17:34.704Z,84.53
2022-12-31T02:18:34.709Z,83.58
2022-12-31T02:19:34.686Z,84.12
2022-12-31T02:20:34.686Z,84.42
2022-12-31T02:21:34.723Z,84.08
2022-12-31T02:22:34.656Z,83.78
2022-12-31T02:23:34.726Z,84.08
2022-12-31T02:24:34.637Z,83.23
2022-12-31T02:25:34.622Z,84.19
2022-12-31T02:26:34.612Z,84.89
2022-12-31T02:27:34.605Z,85.1
2022-12-31T02:28:34.621Z,84.55
2022-12-31T02:29:34.677Z,83.29
2022-12-31T02:30:34.566Z,83.03
2022-12-31T02:31:34.563Z,84.19
2022-12-31T02:32:34.546Z,84.79
2022-12-31T02:33:34.537Z,85.1
2022-12-31T02:34:34.522Z,85.5
2022-12-31T02:35:34.520Z,85.54
2022-12-31T02:36:34.512Z,85.74
2022-12-31T02:37:34.510Z,85.7
2022-12-31T02:38:34.483Z,84.55
2022-12-31T02:39:34.473Z,84.79
2022-12-31T02:40:34.573Z,84.99
2022-12-31T02:41:34.449Z,85.94
2022-12-31T02:42:34.440Z,85.64
2022-12-31T02:43:34.558Z,86.15
2022-12-31T02:44:34.456Z,86.1
2022-12-31T02:45:34.415Z,85.9
2022-12-31T02:46:34.395Z,86
2022-12-31T02:47:34.396Z,85.39
2022-12-31T02:48:34.386Z,85.8
2022-12-31T02:49:34.394Z,85.13
2022-12-31T02:50:34.353Z,86.25
2022-12-31T02:51:34.353Z,86.41
2022-12-31T02:52:34.494Z,86
2022-12-31T02:53:34.334Z,85.8
2022-12-31T02:54:34.377Z,86.25
2022-12-31T02:55:34.299Z,86
2022-12-31T02:56:34.289Z,86.15
2022-12-31T02:57:34.403Z,86.45
2022-12-31T02:58:34.538Z,86.41
2022-12-31T02:59:34.260Z,86.15
2022-12-31T03:00:34.279Z,86.21
2022-12-31T03:01:34.233Z,86.96
2022-12-31T03:02:34.228Z,86.61
2022-12-31T03:03:34.231Z,85.9
2022-12-31T03:04:34.201Z,87.02
2022-12-31T03:05:34.197Z,86.96
2022-12-31T03:06:34.189Z,87.62
2022-12-31T03:07:34.172Z,86.41
2022-12-31T03:08:34.175Z,86.71
2022-12-31T03:09:34.214Z,86.71
2022-12-31T03:10:34.175Z,86.71
2022-12-31T03:11:34.199Z,86.96
2022-12-31T03:12:34.202Z,87.66
2022-12-31T03:13:34.109Z,87.22
2022-12-31T03:14:34.114Z,87.26
2022-12-31T03:15:34.096Z,87.56
2022-12-31T03:16:34.086Z,87.82
2022-12-31T03:17:34.066Z,87.22
2022-12-31T03:18:34.056Z,86.61
2022-12-31T03:19:34.043Z,87.02
2022-12-31T03:20:34.034Z,87.62
2022-12-31T03:39:04.838Z,83.62
2022-12-31T03:40:05.349Z,83.72
2022-12-31T03:41:04.353Z,82.81
2022-12-31T03:42:04.341Z,83.66
2022-12-31T03:43:04.372Z,83.26
2022-12-31T03:44:04.251Z,83.22
2022-12-31T03:45:04.230Z,82.71
2022-12-31T03:46:04.256Z,82.17
2022-12-31T03:47:04.205Z,81.9
2022-12-31T03:48:04.204Z,82.85
2022-12-31T03:49:04.235Z,82.81
2022-12-31T03:50:05.257Z,82.71
2022-12-31T03:51:04.161Z,81.67
2022-12-31T03:52:04.147Z,81.46
2022-12-31T03:53:04.139Z,81.76
2022-12-31T03:54:04.143Z,80.82
2022-12-31T03:55:04.121Z,80.31
2022-12-31T03:56:04.105Z,80.82
2022-12-31T03:57:04.098Z,80.92
2022-12-31T03:58:04.084Z,80.11
2022-12-31T03:59:04.081Z,79.77
2022-12-31T04:00:04.080Z,79.97
2022-12-31T04:01:04.091Z,79.97
2022-12-31T04:02:04.054Z,80.21
2022-12-31T04:03:04.100Z,80.62
2022-12-31T04:04:04.025Z,80.51
2022-12-31T04:05:04.013Z,80.21
2022-12-31T04:06:04.017Z,80.96
2022-12-31T04:07:04.162Z,80.85
2022-12-31T04:08:03.983Z,80.41
2022-12-31T04:09:03.974Z,80.62
2022-12-31T04:10:04.119Z,80.31
2022-12-31T04:11:03.972Z,80.18
2022-12-31T04:12:04.046Z,79.57
2022-12-31T04:13:03.936Z,79.91
2022-12-31T04:14:03.916Z,80.62
2022-12-31T04:15:03.931Z,79.57
2022-12-31T04:16:03.890Z,79.81
2022-12-31T04:17:03.897Z,80.21
2022-12-31T04:18:03.876Z,80.07
2022-12-31T04:19:03.857Z,80.35
2022-12-31T04:20:03.891Z,80.31
2022-12-31T04:21:04.167Z,79.36
2022-12-31T04:22:03.870Z,78.76
2022-12-31T04:23:03.863Z,79.27
2022-12-31T04:24:03.869Z,79.16
2022-12-31T04:25:03.806Z,78.76
2022-12-31T04:26:03.796Z,79.36
2022-12-31T04:27:04.143Z,79.47
2022-12-31T04:28:03.767Z,79.57
2022-12-31T04:29:03.796Z,79.77
2022-12-31T04:30:03.753Z,79.3
2022-12-31T04:31:03.764Z,80.51
2022-12-31T04:32:03.721Z,80.27
2022-12-31T04:33:03.852Z,80.18
2022-12-31T04:34:03.701Z,79.57
2022-12-31T04:35:03.700Z,79.16
2022-12-31T04:36:03.751Z,79.03
2022-12-31T04:37:03.698Z,79.36
2022-12-31T04:38:03.773Z,79.47
2022-12-31T04:39:03.661Z,79.63
2022-12-31T04:40:03.775Z,79.83
2022-12-31T04:41:03.710Z,79.23
2022-12-31T04:42:03.631Z,80.07
2022-12-31T04:43:03.610Z,80.82
2022-12-31T04:44:03.611Z,81.62
2022-12-31T04:45:03.610Z,82.17
2022-12-31T04:46:03.576Z,82.03
2022-12-31T04:47:03.572Z,81.62
2022-12-31T04:48:03.567Z,81.73
2022-12-31T04:49:03.644Z,82.07
2022-12-31T04:50:04.534Z,82.07
2022-12-31T04:51:03.521Z,82.27
2022-12-31T04:52:03.515Z,82.47
2022-12-31T04:53:03.520Z,82.03
2022-12-31T04:54:03.638Z,81.96
2022-12-31T04:55:03.487Z,82.51
2022-12-31T04:56:03.486Z,83.01
2022-12-31T04:57:03.474Z,83.66
2022-12-31T04:58:03.454Z,83.86
2022-12-31T04:59:03.494Z,83.76
2022-12-31T05:00:03.475Z,84.17
2022-12-31T05:01:03.418Z,84.17
2022-12-31T05:02:03.420Z,84.37
2022-12-31T05:03:03.398Z,84.37
2022-12-31T05:04:03.408Z,84.17
2022-12-31T05:05:03.403Z,84.41
2022-12-31T05:06:03.359Z,84.81
2022-12-31T05:07:03.406Z,84.91
2022-12-31T05:08:03.355Z,84.67
2022-12-31T05:09:03.330Z,83.82
2022-12-31T05:10:03.327Z,83.96
2022-12-31T05:11:03.307Z,83.62
2022-12-31T05:12:03.303Z,83.22
2022-12-31T05:13:03.285Z,82.98
2022-12-31T05:14:03.293Z,82.37
2022-12-31T05:15:03.286Z,82.13
2022-12-31T05:16:03.263Z,81.82
2022-12-31T05:17:03.258Z,81.52
2022-12-31T05:18:03.282Z,81.32
2022-12-31T05:19:03.277Z,81.08
2022-12-31T05:20:03.238Z,81.76
2022-12-31T05:21:03.230Z,81.67
2022-12-31T05:22:03.188Z,81.42
2022-12-31T05:23:03.201Z,81.46
2022-12-31T05:24:03.167Z,81.36
2022-12-31T05:25:03.172Z,81.87
2022-12-31T05:26:03.148Z,81.42
2022-12-31T05:27:03.136Z,81.22
2022-12-31T05:28:03.131Z,80.82
2022-12-31T05:29:03.116Z,81.05
2022-12-31T05:30:03.115Z,81.42
2022-12-31T05:31:03.108Z,81.08
2022-12-31T05:32:03.085Z,80.68
2022-12-31T05:33:03.088Z,80.24
2022-12-31T05:34:03.064Z,80.13
2022-12-31T05:35:03.051Z,79.73
2022-12-31T05:36:03.042Z,79.23
2022-12-31T05:37:03.024Z,79.67
2022-12-31T05:38:03.023Z,80.27
2022-12-31T05:39:03.010Z,80.58
2022-12-31T05:40:03.003Z,80.68
2022-12-31T05:41:03.016Z,81.18
2022-12-31T05:42:02.981Z,80.41
2022-12-31T05:43:02.981Z,81.08
2022-12-31T05:44:02.998Z,80.33
2022-12-31T05:45:02.974Z,80.38
2022-12-31T05:46:02.934Z,80.47
2022-12-31T05:47:02.935Z,80.82
2022-12-31T05:48:02.920Z,81.87
2022-12-31T05:49:02.894Z,81.93
2022-12-31T05:50:02.917Z,81.93
2022-12-31T05:51:02.882Z,82.1
2022-12-31T05:52:02.864Z,83.86
2022-12-31T05:53:02.917Z,83.32
2022-12-31T05:54:02.846Z,84.37
2022-12-31T05:55:02.898Z,84.91
2022-12-31T05:56:02.816Z,86.16
2022-12-31T05:57:02.820Z,87.62
2022-12-31T05:58:02.797Z,88.59
2022-12-31T05:59:02.785Z,88.19
2022-12-31T06:00:02.783Z,88.96
2022-12-31T06:01:02.778Z,88.04
2022-12-31T06:02:02.759Z,87.4
2022-12-31T06:03:02.740Z,86.65
2022-12-31T06:04:02.734Z,85.84
2022-12-31T06:05:02.722Z,86.95
2022-12-31T06:06:02.738Z,86.49
2022-12-31T06:07:02.705Z,87.4
2022-12-31T06:08:02.688Z,87.05
2022-12-31T06:09:02.686Z,86.3
2022-12-31T06:10:02.671Z,85.36
2022-12-31T06:11:02.695Z,85.16
2022-12-31T06:12:02.647Z,84.01
2022-12-31T06:13:02.660Z,82.9
2022-12-31T06:14:02.638Z,85.5
2022-12-31T06:15:02.617Z,85.05
2022-12-31T06:16:02.614Z,84.45
2022-12-31T06:17:02.623Z,85.44
2022-12-31T06:18:02.582Z,86.15
2022-12-31T06:19:02.597Z,86.41
2022-12-31T06:20:02.567Z,86.07
2022-12-31T06:21:02.567Z,84.49
2022-12-31T06:22:02.546Z,85.3
2022-12-31T06:23:02.548Z,85.8
2022-12-31T06:24:02.525Z,84.85
2022-12-31T06:25:02.517Z,84.19
2022-12-31T06:26:02.506Z,84.95
2022-12-31T06:27:02.489Z,84.79
2022-12-31T06:28:02.483Z,84.89
2022-12-31T06:29:02.471Z,84.35
2022-12-31T06:30:02.464Z,83.1
2022-12-31T06:31:02.446Z,83.3
2022-12-31T06:32:02.456Z,82.45
2022-12-31T06:33:02.425Z,82.56
2022-12-31T06:34:02.416Z,82.09
2022-12-31T06:35:02.412Z,82.65
2022-12-31T06:36:02.403Z,81.95
2022-12-31T06:37:02.412Z,81.45
2022-12-31T06:38:02.413Z,81.38
2022-12-31T06:39:02.363Z,81.48
2022-12-31T06:40:02.364Z,81.68
2022-12-31T06:41:02.351Z,81.68
2022-12-31T06:42:02.333Z,81.24
2022-12-31T06:43:02.331Z,80.44
2022-12-31T06:44:02.317Z,80.94
2022-12-31T06:45:02.300Z,80.3
2022-12-31T06:46:02.305Z,79.25
2022-12-31T06:47:02.280Z,78.35
2022-12-31T06:48:02.272Z,79.6
2022-12-31T06:49:02.267Z,79.9
2022-12-31T06:50:02.260Z,79.19
2022-12-31T06:51:02.267Z,78.59
2022-12-31T06:52:02.260Z,78.25
2022-12-31T06:53:02.238Z,79.29
2022-12-31T06:54:02.222Z,78.35
2022-12-31T06:55:02.314Z,77.84
2022-12-31T06:56:02.210Z,79.29
2022-12-31T06:57:02.222Z,78.99
2022-12-31T06:58:02.162Z,77.95
2022-12-31T06:59:02.199Z,78.15
2022-12-31T07:00:02.174Z,77.55
2022-12-31T07:01:02.147Z,77.2
2022-12-31T07:02:02.183Z,77.75
2022-12-31T07:03:02.114Z,77.98
2022-12-31T07:04:02.153Z,78.79
2022-12-31T07:05:02.113Z,78.99
2022-12-31T07:06:02.082Z,77.64
2022-12-31T07:07:02.070Z,77.14
2022-12-31T07:08:02.082Z,77.98
2022-12-31T07:09:02.078Z,77.14
2022-12-31T07:10:02.044Z,78.05
2022-12-31T07:11:02.030Z,77.61
2022-12-31T07:12:02.028Z,76.5
2022-12-31T07:13:02.039Z,76.3
2022-12-31T07:14:03.003Z,75.66
2022-12-31T07:15:01.982Z,76.4
2022-12-31T07:16:02.004Z,76.3
2022-12-31T07:17:01.973Z,76.1
2022-12-31T07:18:01.953Z,75.7
2022-12-31T07:19:01.958Z,76.3
2022-12-31T07:20:01.944Z,76.4
2022-12-31T07:21:01.934Z,75.86
2022-12-31T07:22:01.936Z,75.66
2022-12-31T07:23:01.900Z,75.56
2022-12-31T07:24:01.893Z,74.62
2022-12-31T07:25:01.977Z,75.05
2022-12-31T07:26:02.891Z,74.95
2022-12-31T07:27:01.880Z,74.75
2022-12-31T07:28:01.891Z,74.45
2022-12-31T07:29:01.872Z,74.52
2022-12-31T07:30:01.826Z,74.55
2022-12-31T07:31:01.850Z,75.99
2022-12-31T07:32:01.807Z,74.95
2022-12-31T07:33:01.822Z,74.41
2022-12-31T07:34:01.788Z,73.88
2022-12-31T07:35:01.775Z,74.32
2022-12-31T07:36:01.798Z,73.91
2022-12-31T07:37:01.765Z,73.98
2022-12-31T07:38:01.747Z,73.38
2022-12-31T07:39:01.793Z,73.47
2022-12-31T07:40:01.722Z,73.71
2022-12-31T07:41:01.707Z,73.58
2022-12-31T07:42:01.706Z,73.07
2022-12-31T07:43:01.697Z,73.31
2022-12-31T07:44:01.703Z,73.71
2022-12-31T07:45:01.661Z,73.61
2022-12-31T07:46:01.702Z,73.18
2022-12-31T07:47:01.635Z,73.47
2022-12-31T07:48:01.624Z,72.94
2022-12-31T07:49:01.630Z,72.64
2022-12-31T07:50:01.613Z,72.64
2022-12-31T07:51:01.638Z,73.91
2022-12-31T07:52:01.586Z,73.44
2022-12-31T07:53:01.585Z,72.3
2022-12-31T07:54:01.583Z,72.53
2022-12-31T07:55:01.594Z,73.04
2022-12-31T07:56:01.583Z,72.53
2022-12-31T07:57:01.536Z,72.74
2022-12-31T07:58:01.523Z,72.64
2022-12-31T07:59:03.826Z,72.74
2022-12-31T08:00:01.531Z,72.33
2022-12-31T08:01:01.501Z,72.44
2022-12-31T08:02:01.496Z,72.53
2022-12-31T08:03:01.662Z,72.67
2022-12-31T08:04:01.514Z,72.67
2022-12-31T08:05:01.467Z,72.87
2022-12-31T08:06:01.475Z,72.13
2022-12-31T08:07:01.499Z,71.83
2022-12-31T08:08:01.426Z,71.94
2022-12-31T08:09:01.410Z,71.73
2022-12-31T08:10:01.382Z,71.73
2022-12-31T08:11:01.412Z,71.73
2022-12-31T08:12:01.371Z,71.43
2022-12-31T08:13:01.559Z,71.03
2022-12-31T08:14:01.355Z,71.23
2022-12-31T08:15:01.325Z,71.23
2022-12-31T08:16:01.322Z,70.89
2022-12-31T08:17:16.046Z,70.7
2022-12-31T08:18:01.292Z,70.39
2022-12-31T08:19:01.283Z,70.59
2022-12-31T08:20:01.299Z,70.59
2022-12-31T08:21:01.277Z,70.5
2022-12-31T08:22:01.249Z,70.59
2022-12-31T08:23:01.255Z,69.76
2022-12-31T08:24:01.225Z,69.99
2022-12-31T08:25:01.212Z,69.99
2022-12-31T08:26:01.229Z,70.59
2022-12-31T08:27:01.191Z,69.99
2022-12-31T08:28:01.205Z,69.32
2022-12-31T08:29:01.194Z,69.35
2022-12-31T08:30:01.156Z,70.7
2022-12-31T08:31:01.150Z,70.73
2022-12-31T08:32:01.157Z,69.76
2022-12-31T08:33:01.149Z,68.92
2022-12-31T08:34:01.128Z,69.02
2022-12-31T08:35:01.105Z,68.82
2022-12-31T08:36:01.114Z,68.49
2022-12-31T08:37:01.084Z,68.62
2022-12-31T08:38:01.070Z,68.42
2022-12-31T08:39:01.059Z,68.42
2022-12-31T08:40:01.048Z,68.32
2022-12-31T08:41:01.044Z,68.52
2022-12-31T08:42:01.047Z,68.85
2022-12-31T08:43:01.017Z,68.95
2022-12-31T08:44:01.003Z,69.02
2022-12-31T08:45:01.642Z,68.52
2022-12-31T08:46:01.018Z,68.85
2022-12-31T08:47:00.975Z,68.92
2022-12-31T08:48:00.974Z,68.32
2022-12-31T08:49:00.998Z,68.32
2022-12-31T08:50:00.951Z,68.32
2022-12-31T08:51:00.951Z,68.32
2022-12-31T08:52:00.997Z,68.42
2022-12-31T08:53:00.906Z,68.76
2022-12-31T08:54:00.921Z,69.06
2022-12-31T08:55:00.897Z,68.22
2022-12-31T08:56:00.879Z,69.06
2022-12-31T08:57:00.951Z,68.32
2022-12-31T08:58:00.884Z,68.22
2022-12-31T08:59:00.914Z,68.52
2022-12-31T09:00:00.886Z,68.95
2022-12-31T09:01:00.858Z,69.39
2022-12-31T09:02:00.810Z,70.09
2022-12-31T09:03:00.801Z,69.46
2022-12-31T09:04:00.794Z,68.85
2022-12-31T09:05:00.779Z,69.69
2022-12-31T09:06:00.767Z,69.69
2022-12-31T09:07:00.783Z,69.56
2022-12-31T09:08:00.802Z,70.03
2022-12-31T09:09:00.745Z,70.73
2022-12-31T09:10:00.731Z,69.69
2022-12-31T09:11:00.726Z,69.89
2022-12-31T09:12:00.714Z,69.06
2022-12-31T09:13:00.714Z,69.69
2022-12-31T09:14:00.685Z,69.59
2022-12-31T09:15:00.688Z,69.66
2022-12-31T09:16:00.674Z,0
2022-12-31T09:17:00.676Z,0
2022-12-31T09:18:00.720Z,69.99
2022-12-31T09:19:00.637Z,69.69
2022-12-31T09:20:00.630Z,70.09
2022-12-31T09:21:00.608Z,69.79
2022-12-31T09:22:00.597Z,70.29
2022-12-31T09:23:00.642Z,70.63
2022-12-31T09:24:00.577Z,69.85
2022-12-31T09:25:00.575Z,69.79
2022-12-31T09:26:00.580Z,69.76
2022-12-31T09:27:00.590Z,70.32
2022-12-31T09:28:00.553Z,70.7
2022-12-31T09:29:00.526Z,69.85
2022-12-31T09:30:00.526Z,69.06
2022-12-31T09:31:00.567Z,69.35
2022-12-31T09:32:00.494Z,68.82
2022-12-31T09:33:00.477Z,68.29
2022-12-31T09:34:00.469Z,69.15
2022-12-31T09:35:00.464Z,68.85
2022-12-31T09:36:00.445Z,69.26
2022-12-31T09:37:00.445Z,69.06
2022-12-31T09:38:00.458Z,69.26
2022-12-31T09:39:00.421Z,69.69
2022-12-31T09:40:00.405Z,69.35
2022-12-31T09:41:00.400Z,68.85
2022-12-31T09:42:00.380Z,68.65
2022-12-31T09:43:00.374Z,68.65
2022-12-31T09:44:00.378Z,69.39
2022-12-31T09:45:00.358Z,69.39
2022-12-31T09:46:00.374Z,68.76
2022-12-31T09:47:00.390Z,68.55
2022-12-31T09:48:00.367Z,68.42
2022-12-31T09:49:00.366Z,67.99
2022-12-31T09:50:00.308Z,67.49
2022-12-31T09:51:00.293Z,67.92
2022-12-31T09:52:00.313Z,68.35
2022-12-31T09:53:00.269Z,68.65
2022-12-31T09:54:00.267Z,68.12
2022-12-31T09:55:00.247Z,67.58
2022-12-31T09:56:00.242Z,67.49
2022-12-31T09:57:00.227Z,67.58
2022-12-31T09:58:00.211Z,68.52
2022-12-31T09:59:00.209Z,68.22
2022-12-31T10:00:00.218Z,68.12
2022-12-31T10:01:00.181Z,68.42
2022-12-31T10:02:00.205Z,68.02
2022-12-31T10:03:00.175Z,69.59
2022-12-31T10:04:00.159Z,69.26
2022-12-31T10:05:00.402Z,68.92
2022-12-31T10:06:00.131Z,69.06
2022-12-31T10:07:00.166Z,70.19
2022-12-31T10:08:00.105Z,70.89
2022-12-31T10:09:00.091Z,69.76
2022-12-31T10:10:00.087Z,70.79
2022-12-31T10:11:00.073Z,69.99
2022-12-31T10:12:00.095Z,69.66
2022-12-31T10:13:00.067Z,69.56
2022-12-31T10:14:00.081Z,69.79
2022-12-31T10:15:00.035Z,70.12
2022-12-31T10:16:00.059Z,70.76
2022-12-31T10:17:00.035Z,70.32
2022-12-31T10:18:00.013Z,70.23
2022-12-31T10:19:00.002Z,69.59
2022-12-31T10:19:59.978Z,68.45
2022-12-31T10:20:59.996Z,68.88
2022-12-31T10:21:59.995Z,68.79
2022-12-31T10:22:59.948Z,68.55
2022-12-31T10:23:59.930Z,68.45
2022-12-31T10:25:00.133Z,68.12
2022-12-31T10:25:59.958Z,68.12
2022-12-31T10:26:59.953Z,67.72
2022-12-31T10:28:00.040Z,67.82
2022-12-31T10:28:59.941Z,68.55
2022-12-31T10:29:59.876Z,68.15
2022-12-31T10:30:59.881Z,67.95
2022-12-31T10:32:00.109Z,67.92
2022-12-31T10:32:59.885Z,67.42
2022-12-31T10:33:59.837Z,67.18
2022-12-31T10:34:59.824Z,67.29
2022-12-31T10:35:59.818Z,66.99
2022-12-31T10:36:59.842Z,67.11
2022-12-31T10:37:59.779Z,67.95
2022-12-31T10:38:59.817Z,67.72
2022-12-31T10:39:59.774Z,66.68
2022-12-31T10:40:59.780Z,66.88
2022-12-31T10:41:59.836Z,66.78
2022-12-31T10:42:59.737Z,66.88
2022-12-31T10:43:59.745Z,66.88
2022-12-31T10:44:59.749Z,66.78
2022-12-31T10:45:59.701Z,66.58
2022-12-31T10:46:59.689Z,67.18
2022-12-31T10:47:59.815Z,66.99
2022-12-31T10:48:59.668Z,67.85
2022-12-31T10:49:59.698Z,67.72
2022-12-31T10:50:59.644Z,67.82
2022-12-31T10:51:59.721Z,68.02
2022-12-31T10:52:59.694Z,67.61
2022-12-31T10:53:59.678Z,68.32
2022-12-31T10:54:59.634Z,68.32
2022-12-31T10:55:59.692Z,68.02
2022-12-31T10:56:59.585Z,68.02
2022-12-31T10:57:59.593Z,68.12
2022-12-31T10:58:59.568Z,67.92
2022-12-31T10:59:59.566Z,68.35
2022-12-31T11:00:59.565Z,68.55
2022-12-31T11:01:59.542Z,68.42
2022-12-31T11:02:59.576Z,68.42
2022-12-31T11:03:59.601Z,68.52
2022-12-31T11:04:59.573Z,68.62
2022-12-31T11:05:59.487Z,68.72
2022-12-31T11:06:59.583Z,68.42
2022-12-31T11:07:59.487Z,68.08
2022-12-31T11:08:59.467Z,68.42
2022-12-31T11:09:59.442Z,69.15
2022-12-31T11:10:59.492Z,68.76
2022-12-31T11:11:59.421Z,69.15
2022-12-31T11:12:59.447Z,68.72
2022-12-31T11:13:59.412Z,68.62
2022-12-31T11:14:59.405Z,68.32
2022-12-31T11:15:59.418Z,68.02
2022-12-31T11:16:59.450Z,68.42
2022-12-31T11:17:59.391Z,67.99
2022-12-31T11:18:59.357Z,67.99
2022-12-31T11:19:59.335Z,68.22
2022-12-31T11:20:59.329Z,67.88
2022-12-31T11:21:59.329Z,68.22
2022-12-31T11:22:59.333Z,68.32
2022-12-31T11:23:59.314Z,68.62
2022-12-31T11:24:59.291Z,68.62
2022-12-31T11:25:59.296Z,68.62
2022-12-31T11:26:59.262Z,68.72
2022-12-31T11:27:59.445Z,69.06
2022-12-31T11:28:59.257Z,69.02
2022-12-31T11:29:59.252Z,68.92
2022-12-31T11:30:59.227Z,69.35
2022-12-31T11:31:59.211Z,69.56
2022-12-31T11:32:59.203Z,69.22
2022-12-31T11:33:59.185Z,68.92
2022-12-31T11:34:59.203Z,68.82
2022-12-31T11:35:59.214Z,68.32
2022-12-31T11:36:59.161Z,68.62
2022-12-31T11:37:59.156Z,68.42
2022-12-31T11:38:59.166Z,68.52
2022-12-31T11:39:59.181Z,69.22
2022-12-31T11:40:59.245Z,69.76
2022-12-31T11:41:59.162Z,69.76
2022-12-31T11:42:59.110Z,69.42
2022-12-31T11:43:59.080Z,69.12
2022-12-31T11:44:59.076Z,68.82
2022-12-31T11:45:59.244Z,68.62
2022-12-31T11:46:59.065Z,69.06
2022-12-31T11:48:59.047Z,69.15
2022-12-31T11:49:59.015Z,69.22
2022-12-31T11:50:59.022Z,69.06
2022-12-31T11:51:58.993Z,69.99
2022-12-31T11:52:58.992Z,70.19
2022-12-31T11:53:59.008Z,69.85
2022-12-31T11:54:58.964Z,70.7
2022-12-31T11:55:58.950Z,70.59
2022-12-31T11:56:58.947Z,70.7
2022-12-31T11:57:58.931Z,71.33
2022-12-31T11:58:58.956Z,70.73
2022-12-31T11:59:58.914Z,71.43
2022-12-31T12:00:59.217Z,70.56
2022-12-31T12:01:58.921Z,68.65
2022-12-31T12:02:58.879Z,68.39
2022-12-31T12:03:58.950Z,68.39
2022-12-31T12:04:58.856Z,67.96
2022-12-31T12:05:58.925Z,66.46
2022-12-31T12:06:58.834Z,65.55
2022-12-31T12:07:58.838Z,66.09
2022-12-31T12:08:58.846Z,65.99
2022-12-31T12:09:58.845Z,65.92
2022-12-31T12:10:58.789Z,66.65
2022-12-31T12:11:58.863Z,66.82
2022-12-31T12:12:58.764Z,67.05
2022-12-31T12:13:58.762Z,66.75
2022-12-31T12:14:58.776Z,67.25
2022-12-31T12:15:58.781Z,67.15
2022-12-31T12:16:59.503Z,68.12
2022-12-31T12:17:58.741Z,68.12
2022-12-31T12:18:58.707Z,67.69
2022-12-31T12:19:58.700Z,67.69
2022-12-31T12:20:58.703Z,67.69
2022-12-31T12:21:58.736Z,67.82
2022-12-31T12:22:58.660Z,68.95
2022-12-31T12:23:58.658Z,68.95
2022-12-31T12:24:58.692Z,68.62
2022-12-31T12:25:58.659Z,68.08
2022-12-31T12:26:58.638Z,68.12
2022-12-31T12:27:58.620Z,68.22
2022-12-31T12:28:58.618Z,67.82
2022-12-31T12:29:58.583Z,68.79
2022-12-31T12:30:58.585Z,68.76
2022-12-31T12:31:58.569Z,69.29
2022-12-31T12:32:58.554Z,69.39
2022-12-31T12:33:58.541Z,68.99
2022-12-31T12:34:58.574Z,69.09
2022-12-31T12:35:58.518Z,69.29
2022-12-31T12:36:58.528Z,68.65
2022-12-31T12:37:58.506Z,68.12
2022-12-31T12:38:58.500Z,67.72
2022-12-31T12:39:58.541Z,68.12
2022-12-31T12:40:59.465Z,67.82
2022-12-31T12:41:58.457Z,67.72
2022-12-31T12:42:58.466Z,67.52
2022-12-31T12:43:58.462Z,68.12
2022-12-31T12:44:58.469Z,68.35
2022-12-31T12:45:58.421Z,67.82
2022-12-31T12:46:58.420Z,67.08
2022-12-31T12:48:07.788Z,66.99
2022-12-31T12:48:59.398Z,67.42
2022-12-31T12:49:58.446Z,67.29
2022-12-31T12:50:58.366Z,67.08
2022-12-31T12:51:58.350Z,67.18
2022-12-31T12:52:58.350Z,68.32
2022-12-31T12:53:58.363Z,69.66
2022-12-31T12:54:58.318Z,70.16
2022-12-31T12:55:58.306Z,70.26
2022-12-31T12:56:58.310Z,70.43
2022-12-31T12:57:58.286Z,70.53
2022-12-31T12:58:58.308Z,70.29
2022-12-31T12:59:58.265Z,69.62
2022-12-31T13:00:58.394Z,70.56
2022-12-31T13:01:58.266Z,70.26
2022-12-31T13:02:58.230Z,70.26
2022-12-31T13:03:58.379Z,70.96
2022-12-31T13:04:58.222Z,69.66
2022-12-31T13:05:58.219Z,70.06
2022-12-31T13:06:58.189Z,69.42
2022-12-31T13:07:58.178Z,68.72
2022-12-31T13:08:58.165Z,68.22
2022-12-31T13:09:58.160Z,67.92
2022-12-31T13:10:58.144Z,68.32
2022-12-31T13:11:58.154Z,67.79
2022-12-31T13:12:58.120Z,67.92
2022-12-31T13:13:58.138Z,68.02
2022-12-31T13:14:58.159Z,68.32